sensor_id;sensor_type;location;lat;lon;timestamp;pressure;altitude;pressure_sealevel;temperature;humidity
73073;BME280;61260;51.090;-1.786;2022-11-09T00:01:56;99370.71;;;9.84;99.13
73073;BME280;61260;51.090;-1.786;2022-11-09T00:04:26;99376.88;;;9.85;99.22
73073;BME280;61260;51.090;-1.786;2022-11-09T00:06:56;99382.98;;;9.86;99.27
73073;BME280;61260;51.090;-1.786;2022-11-09T00:09:26;99382.48;;;9.88;99.78
73073;BME280;61260;51.090;-1.786;2022-11-09T00:11:56;99374.86;;;9.90;99.72
73073;BME280;61260;51.090;-1.786;2022-11-09T00:14:26;99380.25;;;9.90;99.53
73073;BME280;61260;51.090;-1.786;2022-11-09T00:16:55;99376.81;;;9.90;99.64
73073;BME280;61260;51.090;-1.786;2022-11-09T00:19:25;99375.20;;;9.91;99.95
73073;BME280;61260;51.090;-1.786;2022-11-09T00:21:55;99378.27;;;9.94;99.95
73073;BME280;61260;51.090;-1.786;2022-11-09T00:24:25;99379.80;;;9.98;99.95
73073;BME280;61260;51.090;-1.786;2022-11-09T00:26:54;99379.23;;;10.01;99.99
73073;BME280;61260;51.090;-1.786;2022-11-09T00:29:24;99378.70;;;10.05;99.93
73073;BME280;61260;51.090;-1.786;2022-11-09T00:31:54;99385.52;;;10.09;100.00
73073;BME280;61260;51.090;-1.786;2022-11-09T00:34:24;99385.31;;;10.17;100.00
73073;BME280;61260;51.090;-1.786;2022-11-09T00:36:54;99388.63;;;10.24;100.00
73073;BME280;61260;51.090;-1.786;2022-11-09T00:39:24;99390.94;;;10.28;99.87
73073;BME280;61260;51.090;-1.786;2022-11-09T00:41:53;99394.06;;;10.29;99.62
73073;BME280;61260;51.090;-1.786;2022-11-09T00:44:23;99394.06;;;10.29;99.57
73073;BME280;61260;51.090;-1.786;2022-11-09T00:46:53;99393.11;;;10.28;99.58
73073;BME280;61260;51.090;-1.786;2022-11-09T00:49:23;99397.92;;;10.26;99.61
73073;BME280;61260;51.090;-1.786;2022-11-09T00:51:52;99399.88;;;10.26;99.59
73073;BME280;61260;51.090;-1.786;2022-11-09T00:54:22;99402.98;;;10.24;99.33
73073;BME280;61260;51.090;-1.786;2022-11-09T00:56:52;99404.18;;;10.22;99.32
73073;BME280;61260;51.090;-1.786;2022-11-09T00:59:22;99410.17;;;10.21;99.09
73073;BME280;61260;51.090;-1.786;2022-11-09T01:01:51;99408.08;;;10.21;99.09
73073;BME280;61260;51.090;-1.786;2022-11-09T01:04:21;99409.13;;;10.24;98.80
73073;BME280;61260;51.090;-1.786;2022-11-09T01:06:51;99409.45;;;10.25;98.49
73073;BME280;61260;51.090;-1.786;2022-11-09T01:09:20;99407.52;;;10.27;98.33
73073;BME280;61260;51.090;-1.786;2022-11-09T01:11:50;99406.30;;;10.29;98.11
73073;BME280;61260;51.090;-1.786;2022-11-09T01:14:20;99412.65;;;10.31;97.83
73073;BME280;61260;51.090;-1.786;2022-11-09T01:16:52;99411.34;;;10.33;97.69
73073;BME280;61260;51.090;-1.786;2022-11-09T01:19:22;99410.80;;;10.33;97.59
73073;BME280;61260;51.090;-1.786;2022-11-09T01:21:52;99410.63;;;10.32;97.70
73073;BME280;61260;51.090;-1.786;2022-11-09T01:24:22;99417.41;;;10.32;97.94
73073;BME280;61260;51.090;-1.786;2022-11-09T01:26:52;99411.48;;;10.32;98.01
73073;BME280;61260;51.090;-1.786;2022-11-09T01:29:21;99415.16;;;10.33;98.20
73073;BME280;61260;51.090;-1.786;2022-11-09T01:31:51;99415.63;;;10.33;97.97
73073;BME280;61260;51.090;-1.786;2022-11-09T01:34:23;99414.39;;;10.33;97.76
73073;BME280;61260;51.090;-1.786;2022-11-09T01:36:53;99417.42;;;10.33;97.48
73073;BME280;61260;51.090;-1.786;2022-11-09T01:39:23;99425.17;;;10.35;97.31
73073;BME280;61260;51.090;-1.786;2022-11-09T01:41:52;99426.75;;;10.37;97.06
73073;BME280;61260;51.090;-1.786;2022-11-09T01:44:24;99420.98;;;10.37;96.82
73073;BME280;61260;51.090;-1.786;2022-11-09T01:46:57;99421.45;;;10.36;96.77
73073;BME280;61260;51.090;-1.786;2022-11-09T01:49:37;99422.84;;;10.36;96.90
73073;BME280;61260;51.090;-1.786;2022-11-09T01:52:13;99423.20;;;10.33;96.83
73073;BME280;61260;51.090;-1.786;2022-11-09T01:54:46;99418.24;;;10.30;96.96
73073;BME280;61260;51.090;-1.786;2022-11-09T01:57:20;99422.73;;;10.27;97.26
73073;BME280;61260;51.090;-1.786;2022-11-09T01:59:57;99421.58;;;10.23;97.27
73073;BME280;61260;51.090;-1.786;2022-11-09T02:02:29;99420.64;;;10.18;97.35
73073;BME280;61260;51.090;-1.786;2022-11-09T02:05:06;99415.21;;;10.14;97.57
73073;BME280;61260;51.090;-1.786;2022-11-09T02:07:38;99422.73;;;10.11;97.95
73073;BME280;61260;51.090;-1.786;2022-11-09T02:10:13;99422.79;;;10.09;98.10
73073;BME280;61260;51.090;-1.786;2022-11-09T02:12:47;99424.91;;;10.05;98.08
73073;BME280;61260;51.090;-1.786;2022-11-09T02:15:18;99425.85;;;10.02;98.35
73073;BME280;61260;51.090;-1.786;2022-11-09T02:17:50;99427.81;;;9.98;98.33
73073;BME280;61260;51.090;-1.786;2022-11-09T02:20:22;99425.89;;;9.94;98.54
73073;BME280;61260;51.090;-1.786;2022-11-09T02:22:53;99428.82;;;9.93;99.14
73073;BME280;61260;51.090;-1.786;2022-11-09T02:25:23;99427.88;;;9.92;99.09
73073;BME280;61260;51.090;-1.786;2022-11-09T02:27:52;99426.07;;;9.91;99.08
73073;BME280;61260;51.090;-1.786;2022-11-09T02:30:23;99424.20;;;9.87;98.97
73073;BME280;61260;51.090;-1.786;2022-11-09T02:32:52;99422.65;;;9.82;99.01
73073;BME280;61260;51.090;-1.786;2022-11-09T02:35:22;99425.03;;;9.79;99.10
73073;BME280;61260;51.090;-1.786;2022-11-09T02:37:52;99424.50;;;9.76;99.07
73073;BME280;61260;51.090;-1.786;2022-11-09T02:40:25;99420.34;;;9.73;99.38
73073;BME280;61260;51.090;-1.786;2022-11-09T02:43:00;99421.98;;;9.73;99.49
73073;BME280;61260;51.090;-1.786;2022-11-09T02:45:30;99423.45;;;9.73;99.53
73073;BME280;61260;51.090;-1.786;2022-11-09T02:47:59;99421.98;;;9.73;99.74
73073;BME280;61260;51.090;-1.786;2022-11-09T02:50:29;99425.42;;;9.74;99.70
73073;BME280;61260;51.090;-1.786;2022-11-09T02:52:59;99429.40;;;9.75;99.95
73073;BME280;61260;51.090;-1.786;2022-11-09T02:55:29;99429.66;;;9.77;100.00
73073;BME280;61260;51.090;-1.786;2022-11-09T02:57:58;99433.38;;;9.81;100.00
73073;BME280;61260;51.090;-1.786;2022-11-09T03:00:28;99436.69;;;9.87;100.00
73073;BME280;61260;51.090;-1.786;2022-11-09T03:02:58;99427.98;;;9.94;100.00
73073;BME280;61260;51.090;-1.786;2022-11-09T03:05:28;99423.80;;;10.00;100.00
73073;BME280;61260;51.090;-1.786;2022-11-09T03:07:58;99423.83;;;10.05;100.00
73073;BME280;61260;51.090;-1.786;2022-11-09T03:10:29;99432.17;;;10.12;100.00
73073;BME280;61260;51.090;-1.786;2022-11-09T03:12:59;99436.27;;;10.21;99.98
73073;BME280;61260;51.090;-1.786;2022-11-09T03:15:29;99434.71;;;10.25;99.65
73073;BME280;61260;51.090;-1.786;2022-11-09T03:17:59;99431.59;;;10.31;99.26
73073;BME280;61260;51.090;-1.786;2022-11-09T03:20:29;99438.83;;;10.36;99.01
73073;BME280;61260;51.090;-1.786;2022-11-09T03:23:00;99446.38;;;10.40;98.96
73073;BME280;61260;51.090;-1.786;2022-11-09T03:25:30;99454.03;;;10.42;99.20
73073;BME280;61260;51.090;-1.786;2022-11-09T03:28:01;99451.91;;;10.40;99.65
73073;BME280;61260;51.090;-1.786;2022-11-09T03:30:31;99444.46;;;10.32;99.59
73073;BME280;61260;51.090;-1.786;2022-11-09T03:33:05;99439.70;;;10.25;99.63
73073;BME280;61260;51.090;-1.786;2022-11-09T03:35:39;99437.17;;;10.18;99.81
73073;BME280;61260;51.090;-1.786;2022-11-09T03:38:11;99426.11;;;10.13;99.68
73073;BME280;61260;51.090;-1.786;2022-11-09T03:40:40;99428.83;;;10.06;99.49
73073;BME280;61260;51.090;-1.786;2022-11-09T03:43:10;99425.00;;;9.98;99.38
73073;BME280;61260;51.090;-1.786;2022-11-09T03:45:40;99421.52;;;9.89;99.44
73073;BME280;61260;51.090;-1.786;2022-11-09T03:48:09;99423.10;;;9.80;99.23
73073;BME280;61260;51.090;-1.786;2022-11-09T03:50:39;99422.20;;;9.73;99.23
73073;BME280;61260;51.090;-1.786;2022-11-09T03:53:10;99423.40;;;9.65;99.12
73073;BME280;61260;51.090;-1.786;2022-11-09T03:55:41;99428.38;;;9.59;98.92
73073;BME280;61260;51.090;-1.786;2022-11-09T03:58:11;99429.86;;;9.51;98.93
73073;BME280;61260;51.090;-1.786;2022-11-09T04:00:41;99431.14;;;9.44;98.87
73073;BME280;61260;51.090;-1.786;2022-11-09T04:03:11;99434.54;;;9.37;99.16
73073;BME280;61260;51.090;-1.786;2022-11-09T04:05:41;99441.88;;;9.30;98.84
73073;BME280;61260;51.090;-1.786;2022-11-09T04:08:10;99450.67;;;9.25;99.13
73073;BME280;61260;51.090;-1.786;2022-11-09T04:10:40;99452.84;;;9.20;99.23
73073;BME280;61260;51.090;-1.786;2022-11-09T04:13:10;99454.42;;;9.17;99.48
73073;BME280;61260;51.090;-1.786;2022-11-09T04:15:39;99461.32;;;9.16;99.27
73073;BME280;61260;51.090;-1.786;2022-11-09T04:18:12;99469.05;;;9.15;99.75
73073;BME280;61260;51.090;-1.786;2022-11-09T04:20:43;99476.45;;;9.14;99.60
73073;BME280;61260;51.090;-1.786;2022-11-09T04:23:13;99482.59;;;9.14;99.71
73073;BME280;61260;51.090;-1.786;2022-11-09T04:25:43;99489.42;;;9.13;99.64
73073;BME280;61260;51.090;-1.786;2022-11-09T04:28:13;99492.27;;;9.12;99.60
73073;BME280;61260;51.090;-1.786;2022-11-09T04:30:43;99491.78;;;9.10;99.47
73073;BME280;61260;51.090;-1.786;2022-11-09T04:33:12;99496.04;;;9.09;99.46
73073;BME280;61260;51.090;-1.786;2022-11-09T04:35:42;99498.80;;;9.07;99.51
73073;BME280;61260;51.090;-1.786;2022-11-09T04:38:12;99502.89;;;9.06;99.65
73073;BME280;61260;51.090;-1.786;2022-11-09T04:40:42;99507.61;;;9.04;99.74
73073;BME280;61260;51.090;-1.786;2022-11-09T04:43:13;99513.89;;;9.03;99.75
73073;BME280;61260;51.090;-1.786;2022-11-09T04:45:43;99515.95;;;9.01;99.81
73073;BME280;61260;51.090;-1.786;2022-11-09T04:48:14;99517.11;;;9.01;99.79
73073;BME280;61260;51.090;-1.786;2022-11-09T04:50:44;99524.61;;;9.02;99.82
73073;BME280;61260;51.090;-1.786;2022-11-09T04:53:14;99531.48;;;9.03;99.73
73073;BME280;61260;51.090;-1.786;2022-11-09T04:55:44;99533.21;;;9.04;99.85
73073;BME280;61260;51.090;-1.786;2022-11-09T04:58:14;99539.80;;;9.06;99.95
73073;BME280;61260;51.090;-1.786;2022-11-09T05:00:43;99538.00;;;9.10;99.94
73073;BME280;61260;51.090;-1.786;2022-11-09T05:03:13;99538.15;;;9.14;100.00
73073;BME280;61260;51.090;-1.786;2022-11-09T05:05:43;99541.75;;;9.18;100.00
73073;BME280;61260;51.090;-1.786;2022-11-09T05:08:13;99544.02;;;9.22;100.00
73073;BME280;61260;51.090;-1.786;2022-11-09T05:10:43;99544.55;;;9.26;100.00
73073;BME280;61260;51.090;-1.786;2022-11-09T05:13:13;99548.98;;;9.30;100.00
73073;BME280;61260;51.090;-1.786;2022-11-09T05:15:43;99550.71;;;9.34;100.00
73073;BME280;61260;51.090;-1.786;2022-11-09T05:18:13;99547.45;;;9.35;100.00
73073;BME280;61260;51.090;-1.786;2022-11-09T05:20:42;99545.59;;;9.35;100.00
73073;BME280;61260;51.090;-1.786;2022-11-09T05:23:12;99540.96;;;9.37;100.00
73073;BME280;61260;51.090;-1.786;2022-11-09T05:26:00;99546.67;;;9.39;99.98
73073;BME280;61260;51.090;-1.786;2022-11-09T05:28:29;99542.50;;;9.41;100.00
73073;BME280;61260;51.090;-1.786;2022-11-09T05:30:59;99543.63;;;9.43;99.92
73073;BME280;61260;51.090;-1.786;2022-11-09T05:33:29;99545.96;;;9.42;99.93
73073;BME280;61260;51.090;-1.786;2022-11-09T05:35:59;99556.21;;;9.41;99.96
73073;BME280;61260;51.090;-1.786;2022-11-09T05:38:28;99563.52;;;9.40;99.98
73073;BME280;61260;51.090;-1.786;2022-11-09T05:40:58;99573.21;;;9.39;99.89
73073;BME280;61260;51.090;-1.786;2022-11-09T05:43:28;99576.31;;;9.38;99.80
73073;BME280;61260;51.090;-1.786;2022-11-09T05:45:57;99577.48;;;9.37;99.95
73073;BME280;61260;51.090;-1.786;2022-11-09T05:48:27;99578.70;;;9.37;99.85
73073;BME280;61260;51.090;-1.786;2022-11-09T05:51:01;99575.89;;;9.36;99.88
73073;BME280;61260;51.090;-1.786;2022-11-09T05:53:31;99576.98;;;9.35;99.87
73073;BME280;61260;51.090;-1.786;2022-11-09T05:56:04;99575.98;;;9.32;99.78
73073;BME280;61260;51.090;-1.786;2022-11-09T05:58:36;99579.69;;;9.32;100.00
73073;BME280;61260;51.090;-1.786;2022-11-09T06:01:07;99583.33;;;9.30;99.83
73073;BME280;61260;51.090;-1.786;2022-11-09T06:03:38;99580.42;;;9.30;99.94
73073;BME280;61260;51.090;-1.786;2022-11-09T06:06:13;99582.59;;;9.29;100.00
73073;BME280;61260;51.090;-1.786;2022-11-09T06:08:43;99581.45;;;9.30;100.00
73073;BME280;61260;51.090;-1.786;2022-11-09T06:11:13;99581.78;;;9.31;100.00
73073;BME280;61260;51.090;-1.786;2022-11-09T06:13:43;99587.06;;;9.34;100.00
73073;BME280;61260;51.090;-1.786;2022-11-09T06:16:12;99590.52;;;9.35;100.00
73073;BME280;61260;51.090;-1.786;2022-11-09T06:18:42;99594.73;;;9.36;100.00
73073;BME280;61260;51.090;-1.786;2022-11-09T06:21:12;99599.34;;;9.36;99.99
73073;BME280;61260;51.090;-1.786;2022-11-09T06:23:42;99607.81;;;9.36;99.89
73073;BME280;61260;51.090;-1.786;2022-11-09T06:26:12;99613.64;;;9.35;99.88
73073;BME280;61260;51.090;-1.786;2022-11-09T06:28:42;99622.80;;;9.34;99.71
73073;BME280;61260;51.090;-1.786;2022-11-09T06:31:14;99625.48;;;9.33;99.65
73073;BME280;61260;51.090;-1.786;2022-11-09T06:33:42;99628.42;;;9.32;99.28
73073;BME280;61260;51.090;-1.786;2022-11-09T06:36:13;99633.63;;;9.27;99.30
73073;BME280;61260;51.090;-1.786;2022-11-09T06:38:43;99641.98;;;9.24;99.19
73073;BME280;61260;51.090;-1.786;2022-11-09T06:41:12;99649.09;;;9.23;99.24
73073;BME280;61260;51.090;-1.786;2022-11-09T06:43:42;99654.26;;;9.20;99.07
73073;BME280;61260;51.090;-1.786;2022-11-09T06:46:12;99663.54;;;9.21;98.50
73073;BME280;61260;51.090;-1.786;2022-11-09T06:48:44;99666.36;;;9.22;98.37
73073;BME280;61260;51.090;-1.786;2022-11-09T06:51:14;99669.43;;;9.20;97.88
73073;BME280;61260;51.090;-1.786;2022-11-09T06:53:43;99666.73;;;9.17;97.81
73073;BME280;61260;51.090;-1.786;2022-11-09T06:56:13;99673.02;;;9.14;97.65
73073;BME280;61260;51.090;-1.786;2022-11-09T06:58:43;99678.00;;;9.10;97.72
73073;BME280;61260;51.090;-1.786;2022-11-09T07:01:15;99681.86;;;9.06;97.66
73073;BME280;61260;51.090;-1.786;2022-11-09T07:03:46;99679.77;;;9.03;97.93
73073;BME280;61260;51.090;-1.786;2022-11-09T07:06:15;99688.94;;;8.99;97.95
73073;BME280;61260;51.090;-1.786;2022-11-09T07:08:45;99700.17;;;8.94;97.79
73073;BME280;61260;51.090;-1.786;2022-11-09T07:11:15;99704.30;;;8.90;97.98
73073;BME280;61260;51.090;-1.786;2022-11-09T07:13:47;99705.48;;;8.88;97.99
73073;BME280;61260;51.090;-1.786;2022-11-09T07:16:17;99712.19;;;8.85;98.02
73073;BME280;61260;51.090;-1.786;2022-11-09T07:18:47;99714.92;;;8.82;98.18
73073;BME280;61260;51.090;-1.786;2022-11-09T07:21:17;99723.39;;;8.80;98.15
73073;BME280;61260;51.090;-1.786;2022-11-09T07:23:47;99728.23;;;8.77;98.10
73073;BME280;61260;51.090;-1.786;2022-11-09T07:26:18;99736.40;;;8.77;98.21
73073;BME280;61260;51.090;-1.786;2022-11-09T07:28:48;99745.43;;;8.77;98.06
73073;BME280;61260;51.090;-1.786;2022-11-09T07:31:18;99749.41;;;8.78;98.08
73073;BME280;61260;51.090;-1.786;2022-11-09T07:33:47;99758.13;;;8.81;98.17
73073;BME280;61260;51.090;-1.786;2022-11-09T07:36:17;99760.59;;;8.83;97.98
73073;BME280;61260;51.090;-1.786;2022-11-09T07:38:47;99763.34;;;8.83;97.78
73073;BME280;61260;51.090;-1.786;2022-11-09T07:41:16;99773.14;;;8.87;97.62
73073;BME280;61260;51.090;-1.786;2022-11-09T07:43:46;99783.98;;;8.91;97.67
73073;BME280;61260;51.090;-1.786;2022-11-09T07:46:16;99792.30;;;8.95;97.53
73073;BME280;61260;51.090;-1.786;2022-11-09T07:48:45;99793.57;;;8.95;97.49
73073;BME280;61260;51.090;-1.786;2022-11-09T07:51:15;99801.99;;;8.97;97.19
73073;BME280;61260;51.090;-1.786;2022-11-09T07:53:45;99810.20;;;8.98;97.37
73073;BME280;61260;51.090;-1.786;2022-11-09T07:56:14;99814.85;;;8.99;97.31
73073;BME280;61260;51.090;-1.786;2022-11-09T07:58:45;99825.88;;;9.02;97.35
73073;BME280;61260;51.090;-1.786;2022-11-09T08:01:14;99832.86;;;9.04;97.18
73073;BME280;61260;51.090;-1.786;2022-11-09T08:03:44;99836.31;;;9.08;96.99
73073;BME280;61260;51.090;-1.786;2022-11-09T08:06:14;99846.42;;;9.14;96.89
73073;BME280;61260;51.090;-1.786;2022-11-09T08:08:55;99850.80;;;9.24;96.39
73073;BME280;61260;51.090;-1.786;2022-11-09T08:11:26;99856.13;;;9.34;96.34
73073;BME280;61260;51.090;-1.786;2022-11-09T08:13:56;99864.02;;;9.59;95.90
73073;BME280;61260;51.090;-1.786;2022-11-09T08:16:26;99858.73;;;10.52;95.29
73073;BME280;61260;51.090;-1.786;2022-11-09T08:18:55;99866.05;;;11.61;92.51
73073;BME280;61260;51.090;-1.786;2022-11-09T08:21:25;99872.15;;;12.55;85.99
73073;BME280;61260;51.090;-1.786;2022-11-09T08:23:55;99873.61;;;13.23;83.45
73073;BME280;61260;51.090;-1.786;2022-11-09T08:26:24;99880.85;;;13.87;80.72
73073;BME280;61260;51.090;-1.786;2022-11-09T08:28:54;99881.55;;;14.35;76.38
73073;BME280;61260;51.090;-1.786;2022-11-09T08:31:24;99883.95;;;14.61;75.91
73073;BME280;61260;51.090;-1.786;2022-11-09T08:33:53;99891.52;;;14.98;77.40
73073;BME280;61260;51.090;-1.786;2022-11-09T08:36:23;99889.10;;;15.55;73.47
73073;BME280;61260;51.090;-1.786;2022-11-09T08:38:56;99888.52;;;15.99;71.55
73073;BME280;61260;51.090;-1.786;2022-11-09T08:41:27;99896.02;;;16.27;71.12
73073;BME280;61260;51.090;-1.786;2022-11-09T08:43:57;99899.86;;;16.62;70.29
73073;BME280;61260;51.090;-1.786;2022-11-09T08:46:26;99904.85;;;16.92;66.73
73073;BME280;61260;51.090;-1.786;2022-11-09T08:48:56;99914.90;;;17.23;68.90
73073;BME280;61260;51.090;-1.786;2022-11-09T08:51:26;99913.49;;;17.59;66.16
73073;BME280;61260;51.090;-1.786;2022-11-09T08:53:55;99919.95;;;17.98;66.39
73073;BME280;61260;51.090;-1.786;2022-11-09T08:56:25;99922.77;;;18.42;65.45
73073;BME280;61260;51.090;-1.786;2022-11-09T08:58:55;99928.48;;;18.80;63.47
73073;BME280;61260;51.090;-1.786;2022-11-09T09:01:24;99934.98;;;18.97;59.25
73073;BME280;61260;51.090;-1.786;2022-11-09T09:03:54;99937.55;;;18.81;60.15
73073;BME280;61260;51.090;-1.786;2022-11-09T09:06:24;99935.20;;;18.73;60.16
73073;BME280;61260;51.090;-1.786;2022-11-09T09:08:54;99941.03;;;19.05;57.96
73073;BME280;61260;51.090;-1.786;2022-11-09T09:11:23;99941.67;;;19.17;57.20
73073;BME280;61260;51.090;-1.786;2022-11-09T09:13:53;99943.84;;;19.16;59.14
73073;BME280;61260;51.090;-1.786;2022-11-09T09:16:24;99944.39;;;19.44;57.58
73073;BME280;61260;51.090;-1.786;2022-11-09T09:18:54;99948.67;;;19.60;55.22
73073;BME280;61260;51.090;-1.786;2022-11-09T09:21:23;99952.01;;;19.88;58.02
73073;BME280;61260;51.090;-1.786;2022-11-09T09:23:53;99954.45;;;20.18;53.43
73073;BME280;61260;51.090;-1.786;2022-11-09T09:26:23;99957.64;;;20.04;53.29
73073;BME280;61260;51.090;-1.786;2022-11-09T09:28:53;99964.77;;;20.17;54.08
73073;BME280;61260;51.090;-1.786;2022-11-09T09:31:23;99966.16;;;20.41;52.09
73073;BME280;61260;51.090;-1.786;2022-11-09T09:33:52;99975.86;;;20.51;52.48
73073;BME280;61260;51.090;-1.786;2022-11-09T09:36:23;99983.40;;;20.76;52.18
73073;BME280;61260;51.090;-1.786;2022-11-09T09:38:54;99988.52;;;20.95;49.96
73073;BME280;61260;51.090;-1.786;2022-11-09T09:41:27;99994.42;;;21.01;49.71
73073;BME280;61260;51.090;-1.786;2022-11-09T09:44:01;99997.25;;;21.21;50.56
73073;BME280;61260;51.090;-1.786;2022-11-09T09:46:39;100003.70;;;21.57;50.26
73073;BME280;61260;51.090;-1.786;2022-11-09T09:49:14;100008.13;;;21.82;49.43
73073;BME280;61260;51.090;-1.786;2022-11-09T09:51:51;100009.19;;;21.94;47.59
73073;BME280;61260;51.090;-1.786;2022-11-09T09:54:25;100017.94;;;21.74;48.87
73073;BME280;61260;51.090;-1.786;2022-11-09T09:56:59;100018.08;;;21.74;47.84
73073;BME280;61260;51.090;-1.786;2022-11-09T09:59:34;100019.80;;;21.79;49.10
73073;BME280;61260;51.090;-1.786;2022-11-09T10:02:23;100025.30;;;22.17;48.77
73073;BME280;61260;51.090;-1.786;2022-11-09T10:04:55;100022.30;;;22.52;47.21
73073;BME280;61260;51.090;-1.786;2022-11-09T10:07:29;100029.68;;;22.67;48.37
73073;BME280;61260;51.090;-1.786;2022-11-09T10:10:21;100026.69;;;23.12;48.90
73073;BME280;61260;51.090;-1.786;2022-11-09T10:13:13;100031.50;;;23.55;47.68
73073;BME280;61260;51.090;-1.786;2022-11-09T10:15:48;100034.54;;;23.75;47.12
73073;BME280;61260;51.090;-1.786;2022-11-09T10:18:33;100041.27;;;23.73;45.72
73073;BME280;61260;51.090;-1.786;2022-11-09T10:21:13;100050.92;;;23.63;43.85
73073;BME280;61260;51.090;-1.786;2022-11-09T10:23:53;100053.90;;;23.41;42.69
73073;BME280;61260;51.090;-1.786;2022-11-09T10:26:32;100070.54;;;22.95;45.56
73073;BME280;61260;51.090;-1.786;2022-11-09T10:29:18;100075.67;;;22.07;44.78
73073;BME280;61260;51.090;-1.786;2022-11-09T10:31:51;100079.98;;;20.71;47.28
73073;BME280;61260;51.090;-1.786;2022-11-09T10:34:24;100084.81;;;20.09;49.22
73073;BME280;61260;51.090;-1.786;2022-11-09T10:37:02;100093.70;;;19.32;51.32
73073;BME280;61260;51.090;-1.786;2022-11-09T10:39:41;100091.68;;;19.14;52.23
73073;BME280;61260;51.090;-1.786;2022-11-09T10:42:13;100096.55;;;19.39;52.24
73073;BME280;61260;51.090;-1.786;2022-11-09T10:44:42;100100.45;;;19.85;51.90
73073;BME280;61260;51.090;-1.786;2022-11-09T10:47:13;100104.67;;;20.42;52.15
73073;BME280;61260;51.090;-1.786;2022-11-09T10:49:44;100107.38;;;20.10;49.45
73073;BME280;61260;51.090;-1.786;2022-11-09T10:52:32;100109.19;;;19.89;50.09
73073;BME280;61260;51.090;-1.786;2022-11-09T10:55:25;100110.85;;;19.95;51.51
73073;BME280;61260;51.090;-1.786;2022-11-09T10:57:59;100111.14;;;19.91;52.37
73073;BME280;61260;51.090;-1.786;2022-11-09T11:00:30;100118.91;;;19.26;52.23
73073;BME280;61260;51.090;-1.786;2022-11-09T11:03:10;100124.27;;;18.90;53.55
73073;BME280;61260;51.090;-1.786;2022-11-09T11:05:43;100131.59;;;18.85;54.49
73073;BME280;61260;51.090;-1.786;2022-11-09T11:08:32;100131.46;;;19.21;54.38
73073;BME280;61260;51.090;-1.786;2022-11-09T11:11:14;100135.83;;;19.75;52.94
73073;BME280;61260;51.090;-1.786;2022-11-09T11:13:46;100142.34;;;20.10;51.86
73073;BME280;61260;51.090;-1.786;2022-11-09T11:16:26;100139.02;;;20.13;51.34
73073;BME280;61260;51.090;-1.786;2022-11-09T11:18:56;100140.65;;;20.85;51.08
73073;BME280;61260;51.090;-1.786;2022-11-09T11:21:27;100139.05;;;21.25;48.72
73073;BME280;61260;51.090;-1.786;2022-11-09T11:24:15;100138.97;;;20.95;48.94
73073;BME280;61260;51.090;-1.786;2022-11-09T11:26:51;100144.66;;;20.82;49.46
73073;BME280;61260;51.090;-1.786;2022-11-09T11:29:35;100141.11;;;21.34;47.90
73073;BME280;61260;51.090;-1.786;2022-11-09T11:32:13;100144.42;;;21.10;47.99
73073;BME280;61260;51.090;-1.786;2022-11-09T11:34:44;100147.66;;;20.83;48.82
73073;BME280;61260;51.090;-1.786;2022-11-09T11:37:26;100155.43;;;20.55;49.55
73073;BME280;61260;51.090;-1.786;2022-11-09T11:43:48;100155.52;;;21.06;49.20
73073;BME280;61260;51.090;-1.786;2022-11-09T11:47:24;100153.02;;;21.62;46.72
73073;BME280;61260;51.090;-1.786;2022-11-09T11:50:46;100158.53;;;21.02;49.30
73073;BME280;61260;51.090;-1.786;2022-11-09T11:56:49;100163.16;;;20.42;49.04
73073;BME280;61260;51.090;-1.786;2022-11-09T11:59:50;100167.02;;;19.60;50.45
73073;BME280;61260;51.090;-1.786;2022-11-09T12:02:45;100169.25;;;18.70;51.51
73073;BME280;61260;51.090;-1.786;2022-11-09T12:08:28;100170.78;;;17.26;55.75
73073;BME280;61260;51.090;-1.786;2022-11-09T12:11:07;100177.45;;;16.82;57.10
73073;BME280;61260;51.090;-1.786;2022-11-09T12:13:53;100181.15;;;16.48;58.74
73073;BME280;61260;51.090;-1.786;2022-11-09T12:16:32;100189.91;;;16.24;59.49
73073;BME280;61260;51.090;-1.786;2022-11-09T12:19:19;100193.42;;;16.08;60.34
73073;BME280;61260;51.090;-1.786;2022-11-09T12:22:02;100192.29;;;15.79;60.74
73073;BME280;61260;51.090;-1.786;2022-11-09T12:24:39;100192.67;;;15.58;61.96
73073;BME280;61260;51.090;-1.786;2022-11-09T12:27:34;100191.41;;;15.43;62.71
73073;BME280;61260;51.090;-1.786;2022-11-09T12:30:08;100200.98;;;15.38;63.94
73073;BME280;61260;51.090;-1.786;2022-11-09T12:32:46;100203.01;;;15.34;63.92
73073;BME280;61260;51.090;-1.786;2022-11-09T12:35:30;100202.68;;;15.26;63.97
73073;BME280;61260;51.090;-1.786;2022-11-09T12:38:04;100205.64;;;15.22;63.32
73073;BME280;61260;51.090;-1.786;2022-11-09T12:40:41;100209.36;;;15.34;63.61
73073;BME280;61260;51.090;-1.786;2022-11-09T12:43:18;100212.95;;;15.41;63.50
73073;BME280;61260;51.090;-1.786;2022-11-09T12:45:52;100211.92;;;15.40;63.86
73073;BME280;61260;51.090;-1.786;2022-11-09T12:48:26;100220.88;;;15.40;63.62
73073;BME280;61260;51.090;-1.786;2022-11-09T12:50:59;100222.85;;;15.41;63.69
73073;BME280;61260;51.090;-1.786;2022-11-09T12:53:36;100225.42;;;15.51;63.32
73073;BME280;61260;51.090;-1.786;2022-11-09T12:56:13;100225.06;;;15.57;63.11
73073;BME280;61260;51.090;-1.786;2022-11-09T12:58:50;100225.20;;;15.52;63.02
73073;BME280;61260;51.090;-1.786;2022-11-09T13:01:45;100236.09;;;15.47;63.79
73073;BME280;61260;51.090;-1.786;2022-11-09T13:04:20;100235.51;;;15.53;63.52
73073;BME280;61260;51.090;-1.786;2022-11-09T13:07:18;100233.98;;;15.49;62.81
73073;BME280;61260;51.090;-1.786;2022-11-09T13:09:57;100236.55;;;15.32;63.35
73073;BME280;61260;51.090;-1.786;2022-11-09T13:12:39;100241.06;;;15.18;64.12
73073;BME280;61260;51.090;-1.786;2022-11-09T13:15:24;100245.38;;;15.05;65.06
73073;BME280;61260;51.090;-1.786;2022-11-09T13:17:58;100247.66;;;14.98;65.72
73073;BME280;61260;51.090;-1.786;2022-11-09T13:20:45;100246.27;;;14.90;65.92
73073;BME280;61260;51.090;-1.786;2022-11-09T13:23:40;100254.88;;;14.85;66.34
73073;BME280;61260;51.090;-1.786;2022-11-09T13:26:23;100263.23;;;14.81;66.75
73073;BME280;61260;51.090;-1.786;2022-11-09T13:29:19;100268.81;;;14.73;67.03
73073;BME280;61260;51.090;-1.786;2022-11-09T13:34:55;100275.55;;;14.48;67.34